createdAt,value
2023-01-04T00:01:27.047Z,23.98
2023-01-04T00:03:54.360Z,22.45
2023-01-04T00:06:22.024Z,17.20
2023-01-04T00:08:49.511Z,17.30
2023-01-04T00:11:22.387Z,18.70
2023-01-04T00:16:20.617Z,17.20
2023-01-04T00:18:48.922Z,15.82
2023-01-04T00:21:21.777Z,18.23
2023-01-04T00:26:22.144Z,23.70
2023-01-04T00:28:54.186Z,27.25
2023-01-04T00:31:23.505Z,25.48
2023-01-04T00:33:53.564Z,22.50
2023-01-04T00:36:20.909Z,19.52
2023-01-04T00:38:48.382Z,19.65
2023-01-04T00:41:42.047Z,20.90
2023-01-04T00:44:04.575Z,22.20
2023-01-04T00:46:32.829Z,21.85
2023-01-04T00:49:01.110Z,29.27
2023-01-04T00:51:30.088Z,20.45
2023-01-04T00:54:00.136Z,23.42
2023-01-04T00:56:30.078Z,20.60
2023-01-04T00:58:58.659Z,23.30
2023-01-04T01:01:30.956Z,25.90
2023-01-04T01:04:01.938Z,24.73
2023-01-04T01:06:31.405Z,21.45
2023-01-04T01:08:58.972Z,25.17
2023-01-04T01:11:26.717Z,27.42
2023-01-04T01:13:54.158Z,28.35
2023-01-04T01:16:51.740Z,33.20
2023-01-04T01:19:11.168Z,29.15
2023-01-04T01:21:38.604Z,24.77
2023-01-04T01:24:06.571Z,27.20
2023-01-04T01:26:33.933Z,22.17
2023-01-04T01:29:01.056Z,23.05
2023-01-04T01:31:29.855Z,24.13
2023-01-04T01:33:57.604Z,23.77
2023-01-04T01:36:26.749Z,23.15
2023-01-04T01:38:54.659Z,22.70
2023-01-04T01:41:27.381Z,21.27
2023-01-04T01:44:07.190Z,20.70
2023-01-04T01:46:37.422Z,22.58
2023-01-04T01:49:24.168Z,27.35
2023-01-04T01:51:53.427Z,17.02
2023-01-04T01:54:27.319Z,20.48
2023-01-04T01:56:57.332Z,20.90
2023-01-04T01:59:25.089Z,17.15
2023-01-04T02:01:52.323Z,19.35
2023-01-04T02:04:19.531Z,22.77
2023-01-04T02:06:53.108Z,20.17
2023-01-04T02:09:21.508Z,22.67
2023-01-04T02:11:48.599Z,23.50
2023-01-04T02:14:30.305Z,21.00
2023-01-04T02:17:09.720Z,24.40
2023-01-04T02:20:14.525Z,21.63
2023-01-04T02:23:29.698Z,21.67
2023-01-04T02:26:17.846Z,23.20
2023-01-04T02:29:29.278Z,24.25
2023-01-04T02:32:01.944Z,24.25
2023-01-04T02:34:32.036Z,21.77
2023-01-04T02:37:26.772Z,27.52
2023-01-04T02:40:16.969Z,24.48
2023-01-04T02:43:16.315Z,22.15
2023-01-04T02:45:53.373Z,28.85
2023-01-04T02:48:38.822Z,24.50
2023-01-04T02:51:06.092Z,23.73
2023-01-04T02:53:40.093Z,19.80
2023-01-04T02:56:37.860Z,27.10
2023-01-04T02:59:20.155Z,27.65
2023-01-04T03:02:43.254Z,29.33
2023-01-04T03:06:01.147Z,24.30
2023-01-04T03:08:34.347Z,28.10
2023-01-04T03:11:03.188Z,28.75
2023-01-04T03:13:37.699Z,33.63
2023-01-04T03:16:13.930Z,28.85
2023-01-04T03:18:46.530Z,31.88
2023-01-04T03:21:16.057Z,29.75
2023-01-04T03:24:03.750Z,30.00
2023-01-04T03:26:54.108Z,31.33
2023-01-04T03:29:59.215Z,28.65
2023-01-04T03:33:19.767Z,27.60
2023-01-04T03:36:03.098Z,28.23
2023-01-04T03:38:54.940Z,33.33
2023-01-04T03:42:07.824Z,30.30
2023-01-04T03:45:09.504Z,26.07
2023-01-04T03:48:09.996Z,28.40
2023-01-04T03:50:42.775Z,29.17
2023-01-04T03:53:11.939Z,30.80
2023-01-04T03:55:40.969Z,29.42
2023-01-04T03:58:08.147Z,29.42
2023-01-04T04:00:35.681Z,25.92
2023-01-04T04:03:09.609Z,31.52
2023-01-04T04:05:58.663Z,32.33
2023-01-04T04:08:29.183Z,33.22
2023-01-04T04:11:23.806Z,33.63
2023-01-04T04:13:51.372Z,34.28
2023-01-04T04:16:19.320Z,32.63
2023-01-04T04:18:48.253Z,33.33
2023-01-04T04:21:15.953Z,33.72
2023-01-04T04:23:44.139Z,31.55
2023-01-04T04:26:14.108Z,32.60
2023-01-04T04:28:42.294Z,35.85
2023-01-04T04:31:10.335Z,38.70
2023-01-04T04:33:38.285Z,36.95
2023-01-04T04:36:06.513Z,48.45
2023-01-04T04:38:34.193Z,49.47
2023-01-04T04:41:26.512Z,45.78
2023-01-04T04:43:54.875Z,40.17
2023-01-04T04:46:23.034Z,42.35
2023-01-04T04:48:50.973Z,38.53
2023-01-04T04:51:18.662Z,42.17
2023-01-04T04:53:46.199Z,39.60
2023-01-04T04:56:13.675Z,40.33
2023-01-04T04:58:43.997Z,43.67
2023-01-04T05:01:12.297Z,40.13
2023-01-04T05:03:44.532Z,41.58
2023-01-04T05:06:12.314Z,38.08
2023-01-04T05:08:40.123Z,41.72
2023-01-04T05:11:09.405Z,37.15
2023-01-04T05:13:41.005Z,36.88
2023-01-04T05:16:09.849Z,42.88
2023-01-04T05:18:37.712Z,33.83
2023-01-04T05:21:05.586Z,43.78
2023-01-04T05:23:33.254Z,37.08
2023-01-04T05:26:01.986Z,47.47
2023-01-04T05:28:29.921Z,38.03
2023-01-04T05:30:57.529Z,38.25
2023-01-04T05:33:30.488Z,43.22
2023-01-04T05:36:00.238Z,41.55
2023-01-04T05:38:29.142Z,42.88
2023-01-04T05:40:59.890Z,39.72
2023-01-04T05:43:27.544Z,43.33
2023-01-04T05:45:57.041Z,49.03
2023-01-04T05:48:28.035Z,48.10
2023-01-04T05:50:55.718Z,39.20
2023-01-04T05:53:23.327Z,39.63
2023-01-04T05:55:50.868Z,43.88
2023-01-04T05:58:18.885Z,43.78
2023-01-04T06:00:46.338Z,41.88
2023-01-04T06:03:14.091Z,41.38
2023-01-04T06:05:41.892Z,39.95
2023-01-04T06:08:09.483Z,51.50
2023-01-04T06:10:37.176Z,41.58
2023-01-04T06:13:05.941Z,50.95
2023-01-04T06:15:39.415Z,49.60
2023-01-04T06:18:13.489Z,53.50
2023-01-04T06:20:42.793Z,52.55
2023-01-04T06:23:10.327Z,47.53
2023-01-04T06:25:38.419Z,47.20
2023-01-04T06:28:06.070Z,53.47
2023-01-04T06:30:33.717Z,55.30
2023-01-04T06:33:01.269Z,52.55
2023-01-04T06:35:28.819Z,52.65
2023-01-04T06:38:01.462Z,56.63
2023-01-04T06:40:29.510Z,64.35
2023-01-04T06:42:57.258Z,63.85
2023-01-04T06:45:24.799Z,61.35
2023-01-04T06:47:52.585Z,74.55
2023-01-04T06:50:20.246Z,70.47
2023-01-04T06:52:47.757Z,74.03
2023-01-04T06:55:15.421Z,92.97
2023-01-04T06:57:43.152Z,83.68
2023-01-04T07:00:11.642Z,90.90
2023-01-04T07:02:39.359Z,89.75
2023-01-04T07:05:26.622Z,100.55
2023-01-04T07:07:54.196Z,99.68
2023-01-04T07:10:21.847Z,103.63
2023-01-04T07:12:49.418Z,103.25
2023-01-04T07:15:38.980Z,96.28
2023-01-04T07:18:11.262Z,98.95
2023-01-04T07:20:39.541Z,117.20
2023-01-04T07:23:08.514Z,156.68
2023-01-04T07:25:38.753Z,155.73
2023-01-04T07:28:06.349Z,131.93
2023-01-04T07:30:33.830Z,105.10
2023-01-04T07:33:03.005Z,111.35
2023-01-04T07:35:33.760Z,128.65
2023-01-04T07:38:01.139Z,125.95
2023-01-04T07:40:28.934Z,138.43
2023-01-04T07:42:59.972Z,130.90
2023-01-04T07:45:27.937Z,117.40
2023-01-04T07:47:59.317Z,104.40
2023-01-04T07:50:26.925Z,93.03
2023-01-04T07:52:54.476Z,105.53
2023-01-04T07:55:22.223Z,96.18
2023-01-04T07:57:49.825Z,76.32
2023-01-04T08:00:17.670Z,78.88
2023-01-04T08:03:16.123Z,70.80
2023-01-04T08:42:31.174Z,112.13
2023-01-04T08:45:05.009Z,126.00
2023-01-04T08:47:33.657Z,125.75
2023-01-04T08:50:08.025Z,121.65
2023-01-04T08:52:37.871Z,109.75
2023-01-04T08:55:11.922Z,108.25
2023-01-04T08:57:40.127Z,104.85
2023-01-04T09:00:08.080Z,99.95
2023-01-04T09:02:35.525Z,103.75
2023-01-04T09:05:04.316Z,97.20
2023-01-04T09:07:32.807Z,99.15
2023-01-04T09:10:01.086Z,99.47
2023-01-04T09:12:28.752Z,96.68
2023-01-04T09:14:55.994Z,80.10
2023-01-04T09:17:24.534Z,82.47
2023-01-04T09:19:51.980Z,85.43
2023-01-04T09:22:19.377Z,70.43
2023-01-04T09:24:46.803Z,61.83
2023-01-04T09:27:14.156Z,54.17
2023-01-04T09:29:42.342Z,47.53
2023-01-04T09:32:16.807Z,41.63
2023-01-04T09:34:46.273Z,36.13
2023-01-04T09:37:13.665Z,34.58
2023-01-04T09:39:41.202Z,35.75
2023-01-04T09:42:31.668Z,32.38
2023-01-04T09:45:29.635Z,30.95
2023-01-04T09:48:11.498Z,25.33
2023-01-04T09:51:05.001Z,26.50
2023-01-04T09:53:44.120Z,39.55
2023-01-04T09:56:34.069Z,35.85
2023-01-04T09:59:07.168Z,31.65
2023-01-04T10:01:51.601Z,28.83
2023-01-04T10:04:47.335Z,29.85
2023-01-04T10:07:32.697Z,28.80
2023-01-04T10:10:00.745Z,29.95
2023-01-04T10:13:01.987Z,26.95
2023-01-04T10:15:43.973Z,28.58
2023-01-04T10:21:34.023Z,26.38
2023-01-04T10:24:39.038Z,28.08
2023-01-04T10:27:27.750Z,30.48
2023-01-04T10:30:18.370Z,24.48
2023-01-04T10:32:50.131Z,21.13
2023-01-04T10:35:25.314Z,25.83
2023-01-04T10:37:57.859Z,21.88
2023-01-04T10:40:29.787Z,21.67
2023-01-04T10:43:02.223Z,23.20
2023-01-04T10:46:12.937Z,21.17
2023-01-04T10:49:04.931Z,22.90
2023-01-04T10:51:48.670Z,23.83
2023-01-04T10:54:37.727Z,34.78
2023-01-04T10:57:11.463Z,31.83
2023-01-04T10:59:43.765Z,29.60
2023-01-04T11:02:38.321Z,31.38
2023-01-04T11:05:23.821Z,33.42
2023-01-04T11:07:51.081Z,31.60
2023-01-04T11:10:31.683Z,31.17
2023-01-04T11:12:59.032Z,38.83
2023-01-04T11:15:30.983Z,35.08
2023-01-04T11:18:04.679Z,41.47
2023-01-04T11:20:36.140Z,33.45
2023-01-04T11:23:17.682Z,30.77
2023-01-04T11:26:03.327Z,34.75
2023-01-04T11:28:36.100Z,32.42
2023-01-04T11:34:04.410Z,31.25
2023-01-04T11:36:31.394Z,35.10
2023-01-04T11:39:00.561Z,33.20
2023-01-04T11:41:28.841Z,34.83
2023-01-04T11:44:04.939Z,34.92
2023-01-04T11:46:34.603Z,31.42
2023-01-04T11:49:01.851Z,32.88
2023-01-04T11:51:29.134Z,33.45
2023-01-04T11:54:17.802Z,30.73
2023-01-04T11:57:11.976Z,32.33
2023-01-04T11:59:39.683Z,34.92
2023-01-04T12:02:50.617Z,29.85
2023-01-04T12:05:33.908Z,26.10
2023-01-04T12:10:29.165Z,23.38
2023-01-04T12:13:01.933Z,28.67
2023-01-04T12:15:44.414Z,23.58
2023-01-04T12:18:36.753Z,25.35
2023-01-04T12:21:04.603Z,23.23
2023-01-04T12:23:34.103Z,21.10
2023-01-04T12:26:02.491Z,20.92
2023-01-04T12:28:43.077Z,26.83
2023-01-04T12:31:20.130Z,20.77
2023-01-04T12:34:18.629Z,23.05
2023-01-04T12:36:48.899Z,21.77
2023-01-04T12:39:16.290Z,20.42
2023-01-04T12:42:00.506Z,23.13
2023-01-04T12:44:37.195Z,19.92
2023-01-04T12:47:46.056Z,18.38
2023-01-04T12:50:19.768Z,15.40
2023-01-04T12:55:44.709Z,20.52
